createdAt,value
2019-04-10T00:01:34.095Z,1011.1
2019-04-10T00:07:11.747Z,1011
2019-04-10T00:12:36.034Z,1011
2019-04-10T00:18:07.387Z,1011
2019-04-10T00:23:39.394Z,1011.3
2019-04-10T00:29:09.577Z,1011.4
2019-04-10T00:34:40.673Z,1011.3
2019-04-10T00:40:12.055Z,1011.5
2019-04-10T00:45:43.969Z,1011.5
2019-04-10T00:51:14.906Z,1011.5
2019-04-10T00:56:45.347Z,1011.3
2019-04-10T01:02:16.528Z,1011.3
2019-04-10T01:07:48.548Z,1011.2
2019-04-10T01:13:18.824Z,1011.2
2019-04-10T01:18:49.843Z,1011.3
2019-04-10T01:24:21.643Z,1011.5
2019-04-10T01:29:52.093Z,1011.4
2019-04-10T01:35:23.129Z,1011.4
2019-04-10T01:40:55.269Z,1011.4
2019-04-10T01:46:26.348Z,1011.3
2019-04-10T01:51:57.316Z,1011.4
2019-04-10T01:57:28.382Z,1011.1
2019-04-10T02:02:58.467Z,1011.2
2019-04-10T02:08:29.820Z,1011.2
2019-04-10T02:14:00.675Z,1011.1
2019-04-10T02:19:32.271Z,1011
2019-04-10T02:25:03.380Z,1011
2019-04-10T02:30:34.620Z,1011
2019-04-10T02:36:05.666Z,1011
2019-04-10T02:41:36.486Z,1011
2019-04-10T02:47:07.550Z,1011.1
2019-04-10T02:52:41.020Z,1011.2
2019-04-10T02:58:09.843Z,1011.3
2019-04-10T03:03:42.341Z,1011.2
2019-04-10T03:09:28.715Z,1011.3
2019-04-10T03:14:44.976Z,1011.3
2019-04-10T03:20:14.209Z,1011.3
2019-04-10T03:25:45.439Z,1011.2
2019-04-10T03:31:16.319Z,1011.1
2019-04-10T03:36:47.603Z,1011
2019-04-10T03:42:18.935Z,1011.1
2019-04-10T03:47:49.765Z,1011.2
2019-04-10T03:53:20.903Z,1011.3
2019-04-10T03:58:52.109Z,1011.4
2019-04-10T04:04:23.719Z,1011.4
2019-04-10T04:09:54.183Z,1011.4
2019-04-10T04:15:26.102Z,1011.4
2019-04-10T04:20:56.343Z,1011.3
2019-04-10T04:26:28.202Z,1011.1
2019-04-10T04:31:59.083Z,1011.1
2019-04-10T04:37:30.128Z,1011.1
2019-04-10T04:43:00.913Z,1011.2
2019-04-10T04:48:31.903Z,1011.2
2019-04-10T04:54:02.950Z,1011.3
2019-04-10T04:59:34.581Z,1011.3
2019-04-10T05:05:05.132Z,1011.3
2019-04-10T05:10:36.259Z,1011.2
2019-04-10T05:16:08.166Z,1011.4
2019-04-10T05:21:38.477Z,1011.4
2019-04-10T05:27:09.848Z,1011.2
2019-04-10T05:32:41.752Z,1011.1
2019-04-10T05:38:12.256Z,1011
2019-04-10T05:43:43.034Z,1010.9
2019-04-10T05:49:14.938Z,1011
2019-04-10T05:54:45.549Z,1011.1
2019-04-10T06:00:16.897Z,1011.2
2019-04-10T06:05:48.627Z,1011.4
2019-04-10T06:11:20.473Z,1011.7
2019-04-10T06:16:51.023Z,1011.8
2019-04-10T06:22:22.778Z,1011.6
2019-04-10T06:27:53.053Z,1011.5
2019-04-10T06:33:25.789Z,1011.5
2019-04-10T06:38:56.842Z,1011.3
2019-04-10T06:44:30.089Z,1011.3
2019-04-10T06:50:02.391Z,1011.2
2019-04-10T06:55:33.522Z,1010.9
2019-04-10T07:01:06.273Z,1010.8
2019-04-10T07:06:49.691Z,1010.5
2019-04-10T07:12:10.509Z,1010.2
2019-04-10T07:17:43.239Z,1009.9
2019-04-10T07:23:21.879Z,1009.5
2019-04-10T07:28:49.221Z,1009.5
2019-04-10T07:34:25.139Z,1009.5
2019-04-10T07:39:55.133Z,1009.6
2019-04-10T07:45:27.953Z,1009.7
2019-04-10T07:51:01.138Z,1009.6
2019-04-10T07:56:35.352Z,1009.6
2019-04-10T08:02:08.753Z,1009.4
2019-04-10T08:07:41.369Z,1009.3
2019-04-10T08:13:14.784Z,1009.3
2019-04-10T08:18:48.218Z,1009.3
2019-04-10T08:24:21.748Z,1009.2
2019-04-10T08:29:55.278Z,1009.3
2019-04-10T08:35:29.345Z,1009.2
2019-04-10T08:41:02.803Z,1009.2
2019-04-10T08:46:36.123Z,1009.1
2019-04-10T08:52:10.336Z,1008.9
2019-04-10T08:57:43.867Z,1009.2
2019-04-10T09:03:17.557Z,1009.1
2019-04-10T09:08:51.495Z,1009.3
2019-04-10T09:14:26.211Z,1009.2
2019-04-10T09:19:58.671Z,1009
2019-04-10T09:25:31.811Z,1009
2019-04-10T09:31:05.617Z,1008.8
2019-04-10T09:36:39.612Z,1008.8
2019-04-10T09:42:12.908Z,1008.6
2019-04-10T09:47:48.037Z,1008.8
2019-04-10T09:53:21.266Z,1008.8
2019-04-10T09:58:56.443Z,1008.9
2019-04-10T10:04:29.483Z,1008.9
2019-04-10T10:10:04.215Z,1008.8
2019-04-10T10:15:37.645Z,1008.9
2019-04-10T10:21:10.860Z,1008.8
2019-04-10T10:26:46.396Z,1008.6
2019-04-10T10:32:19.183Z,1008.2
2019-04-10T10:37:52.786Z,1008.3
2019-04-10T10:43:27.122Z,1008.5
2019-04-10T10:49:02.263Z,1008.4
2019-04-10T10:54:36.861Z,1008.4
2019-04-10T11:00:12.749Z,1008.2
2019-04-10T11:05:44.528Z,1008.2
2019-04-10T11:11:18.705Z,1008.3
2019-04-10T11:16:53.663Z,1008.3
2019-04-10T11:22:27.087Z,1008.5
2019-04-10T11:28:01.172Z,1008.3
2019-04-10T11:33:34.788Z,1008.3
2019-04-10T11:39:16.644Z,1008.4
2019-04-10T11:44:45.250Z,1008.3
2019-04-10T11:50:18.266Z,1008.1
2019-04-10T11:55:52.925Z,1008.2
2019-04-10T12:07:00.178Z,1008.3
2019-04-10T12:12:31.401Z,1008.6
2019-04-10T12:18:05.013Z,1008.6
2019-04-10T12:23:38.649Z,1008.6
2019-04-10T12:29:12.179Z,1008.7
2019-04-10T12:34:50.773Z,1008.6
2019-04-10T12:40:23.679Z,1008.6
2019-04-10T12:45:57.172Z,1008.6
2019-04-10T12:51:31.885Z,1008.5
2019-04-10T12:57:04.267Z,1008.4
2019-04-10T13:02:38.603Z,1008.4
2019-04-10T13:08:20.356Z,1008.4
2019-04-10T13:13:44.947Z,1008.3
2019-04-10T13:19:18.806Z,1008.2
2019-04-10T13:24:52.367Z,1008.1
2019-04-10T13:30:27.027Z,1008
2019-04-10T13:36:00.030Z,1008.1
2019-04-10T13:41:34.492Z,1007.9
2019-04-10T13:47:07.823Z,1007.8
2019-04-10T13:52:42.592Z,1007.9
2019-04-10T13:58:15.871Z,1008
2019-04-10T14:03:50.326Z,1008.1
2019-04-10T14:09:34.055Z,1008.4
2019-04-10T14:14:57.401Z,1008.5
2019-04-10T14:20:30.928Z,1008.7
2019-04-10T14:26:04.326Z,1008.8
2019-04-10T14:31:36.475Z,1009
2019-04-10T14:37:09.707Z,1009
2019-04-10T14:42:42.910Z,1009.1
2019-04-10T14:48:16.142Z,1009.1
2019-04-10T14:53:49.145Z,1009.2
2019-04-10T14:59:22.197Z,1009.2
2019-04-10T15:04:55.412Z,1009.3
2019-04-10T15:10:28.335Z,1009.4
2019-04-10T15:16:01.442Z,1009.4
2019-04-10T15:21:34.689Z,1009.4
2019-04-10T15:27:07.452Z,1009.5
2019-04-10T15:32:40.409Z,1009.5
2019-04-10T15:38:13.731Z,1009.6
2019-04-10T15:43:46.370Z,1009.6
2019-04-10T15:49:19.459Z,1009.7
2019-04-10T15:54:53.771Z,1009.8
2019-04-10T16:00:25.388Z,1009.9
2019-04-10T16:05:58.079Z,1009.9
2019-04-10T16:11:31.926Z,1009.9
2019-04-10T16:17:04.641Z,1010.1
2019-04-10T16:22:36.651Z,1010.1
2019-04-10T16:28:10.987Z,1010.1
2019-04-10T16:33:43.330Z,1010.3
2019-04-10T16:39:15.507Z,1010.4
2019-04-10T16:44:49.098Z,1010.5
2019-04-10T16:50:21.606Z,1010.6
2019-04-10T16:55:53.646Z,1010.6
2019-04-10T17:01:26.782Z,1010.6
2019-04-10T17:06:59.180Z,1010.7
2019-04-10T17:12:33.773Z,1010.7
2019-04-10T17:18:04.612Z,1010.8
2019-04-10T17:23:37.384Z,1010.8
2019-04-10T17:29:09.684Z,1010.9
2019-04-10T17:34:43.075Z,1011
2019-04-10T17:40:27.109Z,1011
2019-04-10T17:45:47.489Z,1011.1
2019-04-10T17:51:19.752Z,1011
2019-04-10T17:56:51.215Z,1011.1
2019-04-10T18:02:23.365Z,1011.2
2019-04-10T18:07:54.730Z,1011.4
2019-04-10T18:13:26.742Z,1011.4
2019-04-10T18:18:58.276Z,1011.5
2019-04-10T18:24:30.405Z,1011.6
2019-04-10T18:30:02.444Z,1011.6
2019-04-10T18:35:35.285Z,1011.7
2019-04-10T18:41:09.013Z,1011.8
2019-04-10T18:46:40.182Z,1011.9
2019-04-10T18:52:12.936Z,1012
2019-04-10T18:57:45.352Z,1012.1
2019-04-10T19:03:17.881Z,1012.2
2019-04-10T19:09:02.623Z,1012.3
2019-04-10T19:14:23.001Z,1012.3
2019-04-10T19:19:56.741Z,1012.3
2019-04-10T19:25:28.174Z,1012.3
2019-04-10T19:31:08.479Z,1012.4
2019-04-10T19:36:34.372Z,1012.4
2019-04-10T19:42:05.903Z,1012.3
2019-04-10T19:47:38.817Z,1012.4
2019-04-10T19:53:11.195Z,1012.4
2019-04-10T19:58:44.064Z,1012.5
2019-04-10T20:04:17.232Z,1012.5
2019-04-10T20:09:48.656Z,1012.6
2019-04-10T20:15:21.203Z,1012.6
2019-04-10T20:20:53.647Z,1012.6
2019-04-10T20:26:27.212Z,1012.5
2019-04-10T20:31:58.822Z,1012.6
2019-04-10T20:37:31.394Z,1012.6
2019-04-10T20:43:04.765Z,1012.6
2019-04-10T20:48:38.320Z,1012.7
2019-04-10T20:54:08.991Z,1012.7
2019-04-10T20:59:42.492Z,1012.7
2019-04-10T21:05:15.220Z,1012.7
2019-04-10T21:10:47.199Z,1012.8
2019-04-10T21:16:19.944Z,1012.7
2019-04-10T21:21:52.077Z,1012.7
2019-04-10T21:27:24.343Z,1012.7
2019-04-10T21:32:58.277Z,1012.7
2019-04-10T21:38:30.176Z,1012.6
2019-04-10T21:44:02.306Z,1012.7
2019-04-10T21:49:35.905Z,1012.7
2019-04-10T21:55:07.301Z,1012.7
2019-04-10T22:00:40.777Z,1012.7
2019-04-10T22:06:13.341Z,1012.7
2019-04-10T22:11:45.593Z,1012.7
2019-04-10T22:17:17.412Z,1012.7
2019-04-10T22:22:50.037Z,1012.8
2019-04-10T22:28:23.229Z,1012.8
2019-04-10T22:33:56.278Z,1012.8
2019-04-10T22:39:27.685Z,1012.8
2019-04-10T22:45:00.365Z,1012.8
2019-04-10T22:50:32.744Z,1012.8
2019-04-10T22:56:05.243Z,1012.9
2019-04-10T23:01:37.820Z,1012.8
2019-04-10T23:07:11.434Z,1012.9
2019-04-10T23:12:51.768Z,1012.8
2019-04-10T23:18:15.462Z,1012.9
2019-04-10T23:23:48.872Z,1012.9
2019-04-10T23:29:20.502Z,1013
2019-04-10T23:34:53.129Z,1013
2019-04-10T23:40:25.558Z,1013
2019-04-10T23:45:58.068Z,1013
2019-04-10T23:51:31.433Z,1013
2019-04-10T23:57:07.501Z,1013
